Dema, Kentucky
Current Conditions -  °F | °C
As of 11:15 AM on Thursday 27 Nov 2014 (Local Time) from KPBX Reporting Station
Overcast Overcast  
Wind Chill: 26°   Ceiling: 1500
Heat Index: 33°   Visibility: 10mi
Dew Point: 27°   Wind: 8mph
Humidity: 80%   Direction: 290°WNW
Pressure: 30.2"   Gusts: 16mph
Location:  37.43°N, 82.8°W
Report Text: KPBX 271615Z AUTO 29007G14KT 270V330 10SM BKN015 OVC024 00/M03 A3020 RMK AO2 T00041027
Loading
Personal Weather Stations






























Interactive Weather Map New forecast layout! Learn more

10-Day Weather Forecast

Advertisements
Track Severe Weather on mobile